sensor_id;sensor_type;location;lat;lon;timestamp;temperature;humidity
59977;DHT22;45837;51.076;3.578;2023-06-26T00:01:14;26.40;50.80
59977;DHT22;45837;51.076;3.578;2023-06-26T00:03:40;26.40;50.90
59977;DHT22;45837;51.076;3.578;2023-06-26T00:06:06;26.40;51.00
59977;DHT22;45837;51.076;3.578;2023-06-26T00:08:31;26.40;50.80
59977;DHT22;45837;51.076;3.578;2023-06-26T00:10:57;26.40;50.90
59977;DHT22;45837;51.076;3.578;2023-06-26T00:13:23;26.40;50.80
59977;DHT22;45837;51.076;3.578;2023-06-26T00:15:49;26.40;50.50
59977;DHT22;45837;51.076;3.578;2023-06-26T00:18:15;26.40;50.60
59977;DHT22;45837;51.076;3.578;2023-06-26T00:20:40;26.40;50.90
59977;DHT22;45837;51.076;3.578;2023-06-26T00:23:06;26.40;50.90
59977;DHT22;45837;51.076;3.578;2023-06-26T00:25:33;26.40;50.60
59977;DHT22;45837;51.076;3.578;2023-06-26T00:27:59;26.40;50.40
59977;DHT22;45837;51.076;3.578;2023-06-26T00:30:25;26.40;50.70
59977;DHT22;45837;51.076;3.578;2023-06-26T00:32:50;26.40;51.00
59977;DHT22;45837;51.076;3.578;2023-06-26T00:35:16;26.40;50.70
59977;DHT22;45837;51.076;3.578;2023-06-26T00:37:43;26.40;51.00
59977;DHT22;45837;51.076;3.578;2023-06-26T00:40:09;26.40;51.00
59977;DHT22;45837;51.076;3.578;2023-06-26T00:42:35;26.40;51.00
59977;DHT22;45837;51.076;3.578;2023-06-26T00:45:01;26.40;51.20
59977;DHT22;45837;51.076;3.578;2023-06-26T00:47:26;26.40;51.10
59977;DHT22;45837;51.076;3.578;2023-06-26T00:49:53;26.40;51.20
59977;DHT22;45837;51.076;3.578;2023-06-26T00:52:20;26.40;51.00
59977;DHT22;45837;51.076;3.578;2023-06-26T00:54:46;26.40;51.40
59977;DHT22;45837;51.076;3.578;2023-06-26T00:57:12;26.40;51.00
59977;DHT22;45837;51.076;3.578;2023-06-26T00:59:37;26.40;51.40
59977;DHT22;45837;51.076;3.578;2023-06-26T01:02:03;26.40;51.40
59977;DHT22;45837;51.076;3.578;2023-06-26T01:04:29;26.40;51.60
59977;DHT22;45837;51.076;3.578;2023-06-26T01:06:58;26.40;51.20
59977;DHT22;45837;51.076;3.578;2023-06-26T01:09:24;26.40;51.30
59977;DHT22;45837;51.076;3.578;2023-06-26T01:11:50;26.40;51.40
59977;DHT22;45837;51.076;3.578;2023-06-26T01:14:16;26.40;51.70
59977;DHT22;45837;51.076;3.578;2023-06-26T01:16:44;26.40;52.10
59977;DHT22;45837;51.076;3.578;2023-06-26T01:19:33;26.40;52.10
59977;DHT22;45837;51.076;3.578;2023-06-26T01:22:02;26.40;51.50
59977;DHT22;45837;51.076;3.578;2023-06-26T01:24:41;26.40;51.60
59977;DHT22;45837;51.076;3.578;2023-06-26T01:27:07;26.40;51.70
59977;DHT22;45837;51.076;3.578;2023-06-26T01:29:33;26.40;51.70
59977;DHT22;45837;51.076;3.578;2023-06-26T01:32:00;26.40;51.80
59977;DHT22;45837;51.076;3.578;2023-06-26T01:34:27;26.40;51.80
59977;DHT22;45837;51.076;3.578;2023-06-26T01:36:53;26.40;52.00
59977;DHT22;45837;51.076;3.578;2023-06-26T01:39:19;26.40;52.10
59977;DHT22;45837;51.076;3.578;2023-06-26T01:41:45;26.40;52.10
59977;DHT22;45837;51.076;3.578;2023-06-26T01:46:58;26.30;51.80
59977;DHT22;45837;51.076;3.578;2023-06-26T01:52:23;26.30;52.00
59977;DHT22;45837;51.076;3.578;2023-06-26T01:54:55;26.30;52.10
59977;DHT22;45837;51.076;3.578;2023-06-26T01:57:22;26.30;52.10
59977;DHT22;45837;51.076;3.578;2023-06-26T01:59:48;26.40;52.50
59977;DHT22;45837;51.076;3.578;2023-06-26T02:02:14;26.40;52.60
59977;DHT22;45837;51.076;3.578;2023-06-26T02:04:40;26.40;52.90
59977;DHT22;45837;51.076;3.578;2023-06-26T02:07:05;26.30;52.50
59977;DHT22;45837;51.076;3.578;2023-06-26T02:09:32;26.30;52.70
59977;DHT22;45837;51.076;3.578;2023-06-26T02:11:57;26.30;52.70
59977;DHT22;45837;51.076;3.578;2023-06-26T02:14:25;26.30;53.10
59977;DHT22;45837;51.076;3.578;2023-06-26T02:16:50;26.30;52.70
59977;DHT22;45837;51.076;3.578;2023-06-26T02:19:16;26.30;52.60
59977;DHT22;45837;51.076;3.578;2023-06-26T02:21:48;26.30;52.50
59977;DHT22;45837;51.076;3.578;2023-06-26T02:24:14;26.30;52.50
59977;DHT22;45837;51.076;3.578;2023-06-26T02:26:40;26.30;52.70
59977;DHT22;45837;51.076;3.578;2023-06-26T02:29:05;26.30;52.80
59977;DHT22;45837;51.076;3.578;2023-06-26T02:31:31;26.30;53.00
59977;DHT22;45837;51.076;3.578;2023-06-26T02:33:57;26.30;52.70
59977;DHT22;45837;51.076;3.578;2023-06-26T02:36:22;26.30;52.70
59977;DHT22;45837;51.076;3.578;2023-06-26T02:38:48;26.30;52.80
59977;DHT22;45837;51.076;3.578;2023-06-26T02:41:14;26.30;52.90
59977;DHT22;45837;51.076;3.578;2023-06-26T02:43:40;26.30;52.70
59977;DHT22;45837;51.076;3.578;2023-06-26T02:46:06;26.30;52.80
59977;DHT22;45837;51.076;3.578;2023-06-26T02:48:32;26.20;52.80
59977;DHT22;45837;51.076;3.578;2023-06-26T02:50:58;26.30;52.60
59977;DHT22;45837;51.076;3.578;2023-06-26T02:53:28;26.30;52.30
59977;DHT22;45837;51.076;3.578;2023-06-26T02:55:54;26.30;52.50
59977;DHT22;45837;51.076;3.578;2023-06-26T02:58:19;26.20;52.50
59977;DHT22;45837;51.076;3.578;2023-06-26T03:00:47;26.20;52.60
59977;DHT22;45837;51.076;3.578;2023-06-26T03:03:15;26.20;52.60
59977;DHT22;45837;51.076;3.578;2023-06-26T03:05:41;26.20;52.50
59977;DHT22;45837;51.076;3.578;2023-06-26T03:08:07;26.20;53.00
59977;DHT22;45837;51.076;3.578;2023-06-26T03:10:33;26.30;52.40
59977;DHT22;45837;51.076;3.578;2023-06-26T03:12:59;26.20;52.90
59977;DHT22;45837;51.076;3.578;2023-06-26T03:15:25;26.20;52.50
59977;DHT22;45837;51.076;3.578;2023-06-26T03:17:51;26.20;52.40
59977;DHT22;45837;51.076;3.578;2023-06-26T03:20:22;26.20;52.40
59977;DHT22;45837;51.076;3.578;2023-06-26T03:22:52;26.20;52.40
59977;DHT22;45837;51.076;3.578;2023-06-26T03:25:19;26.20;52.30
59977;DHT22;45837;51.076;3.578;2023-06-26T03:27:45;26.20;52.40
59977;DHT22;45837;51.076;3.578;2023-06-26T03:30:12;26.20;52.20
59977;DHT22;45837;51.076;3.578;2023-06-26T03:32:40;26.20;52.20
59977;DHT22;45837;51.076;3.578;2023-06-26T03:35:06;26.20;52.20
59977;DHT22;45837;51.076;3.578;2023-06-26T03:37:32;26.20;52.50
59977;DHT22;45837;51.076;3.578;2023-06-26T03:39:58;26.20;52.40
59977;DHT22;45837;51.076;3.578;2023-06-26T03:42:24;26.20;52.00
59977;DHT22;45837;51.076;3.578;2023-06-26T03:44:50;26.20;52.20
59977;DHT22;45837;51.076;3.578;2023-06-26T03:47:17;26.20;52.00
59977;DHT22;45837;51.076;3.578;2023-06-26T03:49:43;26.20;52.20
59977;DHT22;45837;51.076;3.578;2023-06-26T03:52:09;26.20;51.90
59977;DHT22;45837;51.076;3.578;2023-06-26T03:54:35;26.20;52.00
59977;DHT22;45837;51.076;3.578;2023-06-26T03:57:00;26.20;52.10
59977;DHT22;45837;51.076;3.578;2023-06-26T03:59:26;26.20;51.80
59977;DHT22;45837;51.076;3.578;2023-06-26T04:01:52;26.20;51.90
59977;DHT22;45837;51.076;3.578;2023-06-26T04:04:18;26.20;51.50
59977;DHT22;45837;51.076;3.578;2023-06-26T04:06:44;26.20;51.70
59977;DHT22;45837;51.076;3.578;2023-06-26T04:09:10;26.20;51.60
59977;DHT22;45837;51.076;3.578;2023-06-26T04:11:35;26.20;51.50
59977;DHT22;45837;51.076;3.578;2023-06-26T04:14:01;26.30;51.50
59977;DHT22;45837;51.076;3.578;2023-06-26T04:16:28;26.20;51.10
59977;DHT22;45837;51.076;3.578;2023-06-26T04:18:54;26.30;50.90
59977;DHT22;45837;51.076;3.578;2023-06-26T04:21:21;26.30;50.90
59977;DHT22;45837;51.076;3.578;2023-06-26T04:23:50;26.30;50.70
59977;DHT22;45837;51.076;3.578;2023-06-26T04:26:16;26.40;50.60
59977;DHT22;45837;51.076;3.578;2023-06-26T04:28:42;26.40;50.40
59977;DHT22;45837;51.076;3.578;2023-06-26T04:31:08;26.40;50.40
59977;DHT22;45837;51.076;3.578;2023-06-26T04:33:34;26.50;50.00
59977;DHT22;45837;51.076;3.578;2023-06-26T04:36:02;26.50;50.00
59977;DHT22;45837;51.076;3.578;2023-06-26T04:38:29;26.60;49.30
59977;DHT22;45837;51.076;3.578;2023-06-26T04:40:55;26.60;49.00
59977;DHT22;45837;51.076;3.578;2023-06-26T04:43:20;26.60;48.90
59977;DHT22;45837;51.076;3.578;2023-06-26T04:45:46;26.60;48.30
59977;DHT22;45837;51.076;3.578;2023-06-26T04:48:12;26.60;48.40
59977;DHT22;45837;51.076;3.578;2023-06-26T04:50:38;26.60;48.30
59977;DHT22;45837;51.076;3.578;2023-06-26T04:53:03;26.60;48.20
59977;DHT22;45837;51.076;3.578;2023-06-26T04:55:29;26.60;48.10
59977;DHT22;45837;51.076;3.578;2023-06-26T04:57:56;26.60;47.80
59977;DHT22;45837;51.076;3.578;2023-06-26T05:00:21;26.60;47.70
59977;DHT22;45837;51.076;3.578;2023-06-26T05:02:48;26.60;47.30
59977;DHT22;45837;51.076;3.578;2023-06-26T05:05:13;26.60;47.20
59977;DHT22;45837;51.076;3.578;2023-06-26T05:07:41;26.70;47.30
59977;DHT22;45837;51.076;3.578;2023-06-26T05:10:06;26.70;47.00
59977;DHT22;45837;51.076;3.578;2023-06-26T05:12:33;26.60;46.90
59977;DHT22;45837;51.076;3.578;2023-06-26T05:14:58;26.60;47.10
59977;DHT22;45837;51.076;3.578;2023-06-26T05:17:24;26.60;47.40
59977;DHT22;45837;51.076;3.578;2023-06-26T05:19:49;26.50;47.10
59977;DHT22;45837;51.076;3.578;2023-06-26T05:22:16;26.50;47.50
59977;DHT22;45837;51.076;3.578;2023-06-26T05:24:42;26.40;47.00
59977;DHT22;45837;51.076;3.578;2023-06-26T05:27:10;26.40;47.20
59977;DHT22;45837;51.076;3.578;2023-06-26T05:29:36;26.30;47.20
59977;DHT22;45837;51.076;3.578;2023-06-26T05:32:02;26.30;47.80
59977;DHT22;45837;51.076;3.578;2023-06-26T05:34:28;26.20;47.40
59977;DHT22;45837;51.076;3.578;2023-06-26T05:36:55;26.20;47.70
59977;DHT22;45837;51.076;3.578;2023-06-26T05:39:22;26.20;47.40
59977;DHT22;45837;51.076;3.578;2023-06-26T05:41:48;26.20;47.80
59977;DHT22;45837;51.076;3.578;2023-06-26T05:44:14;26.20;47.40
59977;DHT22;45837;51.076;3.578;2023-06-26T05:46:39;26.20;47.70
59977;DHT22;45837;51.076;3.578;2023-06-26T05:49:05;26.10;48.00
59977;DHT22;45837;51.076;3.578;2023-06-26T05:51:31;26.10;47.70
59977;DHT22;45837;51.076;3.578;2023-06-26T05:53:56;26.10;47.90
59977;DHT22;45837;51.076;3.578;2023-06-26T05:56:22;26.00;47.80
59977;DHT22;45837;51.076;3.578;2023-06-26T05:58:48;26.00;48.00
59977;DHT22;45837;51.076;3.578;2023-06-26T06:01:14;26.00;47.80
59977;DHT22;45837;51.076;3.578;2023-06-26T06:03:40;26.00;48.20
59977;DHT22;45837;51.076;3.578;2023-06-26T06:06:05;25.90;48.40
59977;DHT22;45837;51.076;3.578;2023-06-26T06:08:31;25.90;48.30
59977;DHT22;45837;51.076;3.578;2023-06-26T06:10:57;25.90;48.30
59977;DHT22;45837;51.076;3.578;2023-06-26T06:13:23;25.80;47.80
59977;DHT22;45837;51.076;3.578;2023-06-26T06:15:49;25.80;47.90
59977;DHT22;45837;51.076;3.578;2023-06-26T06:18:14;25.80;47.70
59977;DHT22;45837;51.076;3.578;2023-06-26T06:20:40;25.80;48.20
59977;DHT22;45837;51.076;3.578;2023-06-26T06:23:06;25.80;48.50
59977;DHT22;45837;51.076;3.578;2023-06-26T06:25:31;25.80;48.10
59977;DHT22;45837;51.076;3.578;2023-06-26T06:27:57;25.80;48.50
59977;DHT22;45837;51.076;3.578;2023-06-26T06:30:23;25.80;48.30
59977;DHT22;45837;51.076;3.578;2023-06-26T06:32:48;25.70;48.30
59977;DHT22;45837;51.076;3.578;2023-06-26T06:35:17;25.70;48.00
59977;DHT22;45837;51.076;3.578;2023-06-26T06:37:43;25.70;47.70
59977;DHT22;45837;51.076;3.578;2023-06-26T06:40:08;25.70;48.30
59977;DHT22;45837;51.076;3.578;2023-06-26T06:42:34;25.70;47.70
59977;DHT22;45837;51.076;3.578;2023-06-26T06:45:04;25.70;47.90
59977;DHT22;45837;51.076;3.578;2023-06-26T06:47:30;25.70;47.80
59977;DHT22;45837;51.076;3.578;2023-06-26T06:49:56;25.70;47.90
59977;DHT22;45837;51.076;3.578;2023-06-26T06:52:21;25.70;48.30
59977;DHT22;45837;51.076;3.578;2023-06-26T06:54:54;25.70;48.00
59977;DHT22;45837;51.076;3.578;2023-06-26T06:57:20;25.70;47.20
59977;DHT22;45837;51.076;3.578;2023-06-26T06:59:46;25.60;47.10
59977;DHT22;45837;51.076;3.578;2023-06-26T07:02:13;25.70;47.50
59977;DHT22;45837;51.076;3.578;2023-06-26T07:04:38;25.60;47.10
59977;DHT22;45837;51.076;3.578;2023-06-26T07:07:04;25.60;47.20
59977;DHT22;45837;51.076;3.578;2023-06-26T07:09:30;25.60;46.80
59977;DHT22;45837;51.076;3.578;2023-06-26T07:11:55;25.60;47.10
59977;DHT22;45837;51.076;3.578;2023-06-26T07:14:21;25.60;46.70
59977;DHT22;45837;51.076;3.578;2023-06-26T07:16:47;25.60;46.90
59977;DHT22;45837;51.076;3.578;2023-06-26T07:19:12;25.60;46.70
59977;DHT22;45837;51.076;3.578;2023-06-26T07:21:38;25.60;46.70
59977;DHT22;45837;51.076;3.578;2023-06-26T07:24:03;25.60;46.60
59977;DHT22;45837;51.076;3.578;2023-06-26T07:26:29;25.60;46.60
59977;DHT22;45837;51.076;3.578;2023-06-26T07:28:55;25.60;46.70
59977;DHT22;45837;51.076;3.578;2023-06-26T07:31:22;25.60;46.70
59977;DHT22;45837;51.076;3.578;2023-06-26T07:33:47;25.60;46.60
59977;DHT22;45837;51.076;3.578;2023-06-26T07:36:13;25.60;46.40
59977;DHT22;45837;51.076;3.578;2023-06-26T07:38:39;25.50;46.60
59977;DHT22;45837;51.076;3.578;2023-06-26T07:41:04;25.60;46.10
59977;DHT22;45837;51.076;3.578;2023-06-26T07:43:30;25.50;46.00
59977;DHT22;45837;51.076;3.578;2023-06-26T07:45:56;25.50;45.80
59977;DHT22;45837;51.076;3.578;2023-06-26T07:48:24;25.60;46.10
59977;DHT22;45837;51.076;3.578;2023-06-26T07:50:50;25.50;45.60
59977;DHT22;45837;51.076;3.578;2023-06-26T07:53:15;25.50;45.70
59977;DHT22;45837;51.076;3.578;2023-06-26T07:55:41;25.60;45.80
59977;DHT22;45837;51.076;3.578;2023-06-26T07:58:07;25.60;46.00
59977;DHT22;45837;51.076;3.578;2023-06-26T08:00:33;25.50;45.50
59977;DHT22;45837;51.076;3.578;2023-06-26T08:02:58;25.50;46.20
59977;DHT22;45837;51.076;3.578;2023-06-26T08:05:24;25.50;45.80
59977;DHT22;45837;51.076;3.578;2023-06-26T08:07:50;25.50;45.40
59977;DHT22;45837;51.076;3.578;2023-06-26T08:10:15;25.50;45.60
59977;DHT22;45837;51.076;3.578;2023-06-26T08:12:41;25.50;45.30
59977;DHT22;45837;51.076;3.578;2023-06-26T08:15:10;25.50;44.80
59977;DHT22;45837;51.076;3.578;2023-06-26T08:17:36;25.50;44.80
59977;DHT22;45837;51.076;3.578;2023-06-26T08:20:03;25.50;44.80
59977;DHT22;45837;51.076;3.578;2023-06-26T08:22:29;25.50;45.00
59977;DHT22;45837;51.076;3.578;2023-06-26T08:24:54;25.50;45.20
59977;DHT22;45837;51.076;3.578;2023-06-26T08:27:20;25.50;45.50
59977;DHT22;45837;51.076;3.578;2023-06-26T08:29:46;25.50;45.20
59977;DHT22;45837;51.076;3.578;2023-06-26T08:32:11;25.50;45.30
59977;DHT22;45837;51.076;3.578;2023-06-26T08:34:37;25.50;45.00
59977;DHT22;45837;51.076;3.578;2023-06-26T08:37:03;25.50;44.40
59977;DHT22;45837;51.076;3.578;2023-06-26T08:39:29;25.50;43.70
59977;DHT22;45837;51.076;3.578;2023-06-26T08:41:54;25.50;44.00
59977;DHT22;45837;51.076;3.578;2023-06-26T08:44:20;25.50;44.50
59977;DHT22;45837;51.076;3.578;2023-06-26T08:46:50;25.50;44.60
59977;DHT22;45837;51.076;3.578;2023-06-26T08:49:25;25.50;44.70
59977;DHT22;45837;51.076;3.578;2023-06-26T08:51:57;25.50;44.20
59977;DHT22;45837;51.076;3.578;2023-06-26T08:54:29;25.60;44.20
59977;DHT22;45837;51.076;3.578;2023-06-26T08:56:56;25.60;44.20
59977;DHT22;45837;51.076;3.578;2023-06-26T08:59:23;25.50;44.20
59977;DHT22;45837;51.076;3.578;2023-06-26T09:01:49;25.50;44.00
59977;DHT22;45837;51.076;3.578;2023-06-26T09:04:15;25.60;43.30
59977;DHT22;45837;51.076;3.578;2023-06-26T09:06:41;25.50;43.20
59977;DHT22;45837;51.076;3.578;2023-06-26T09:09:07;25.50;43.60
59977;DHT22;45837;51.076;3.578;2023-06-26T09:11:33;25.50;43.80
59977;DHT22;45837;51.076;3.578;2023-06-26T09:13:59;25.50;44.30
59977;DHT22;45837;51.076;3.578;2023-06-26T09:16:25;25.50;44.10
59977;DHT22;45837;51.076;3.578;2023-06-26T09:18:52;25.50;43.80
59977;DHT22;45837;51.076;3.578;2023-06-26T09:21:17;25.50;43.70
59977;DHT22;45837;51.076;3.578;2023-06-26T09:23:43;25.50;44.00
59977;DHT22;45837;51.076;3.578;2023-06-26T09:26:09;25.50;43.90
59977;DHT22;45837;51.076;3.578;2023-06-26T09:28:35;25.60;43.20
59977;DHT22;45837;51.076;3.578;2023-06-26T09:31:04;25.50;43.00
59977;DHT22;45837;51.076;3.578;2023-06-26T09:33:33;25.60;42.80
59977;DHT22;45837;51.076;3.578;2023-06-26T09:35:58;25.60;42.90
59977;DHT22;45837;51.076;3.578;2023-06-26T09:38:24;25.60;43.20
59977;DHT22;45837;51.076;3.578;2023-06-26T09:40:50;25.60;42.90
59977;DHT22;45837;51.076;3.578;2023-06-26T09:43:16;25.60;42.50
59977;DHT22;45837;51.076;3.578;2023-06-26T09:45:41;25.60;42.60
59977;DHT22;45837;51.076;3.578;2023-06-26T09:48:07;25.60;42.40
59977;DHT22;45837;51.076;3.578;2023-06-26T09:50:34;25.60;42.10
59977;DHT22;45837;51.076;3.578;2023-06-26T09:53:12;25.60;42.20
59977;DHT22;45837;51.076;3.578;2023-06-26T09:55:39;25.60;42.00
59977;DHT22;45837;51.076;3.578;2023-06-26T09:58:06;26.80;43.00
59977;DHT22;45837;51.076;3.578;2023-06-26T10:00:32;25.60;42.20
59977;DHT22;45837;51.076;3.578;2023-06-26T10:02:58;23.00;41.00
59977;DHT22;45837;51.076;3.578;2023-06-26T10:05:26;25.60;42.00
59977;DHT22;45837;51.076;3.578;2023-06-26T10:07:52;25.60;42.50
59977;DHT22;45837;51.076;3.578;2023-06-26T10:10:18;26.70;43.40
59977;DHT22;45837;51.076;3.578;2023-06-26T10:12:45;25.60;42.80
59977;DHT22;45837;51.076;3.578;2023-06-26T10:15:12;25.60;42.40
59977;DHT22;45837;51.076;3.578;2023-06-26T10:17:42;25.70;42.80
59977;DHT22;45837;51.076;3.578;2023-06-26T10:20:08;25.60;42.00
59977;DHT22;45837;51.076;3.578;2023-06-26T10:22:36;25.60;42.00
59977;DHT22;45837;51.076;3.578;2023-06-26T10:25:02;25.60;41.60
59977;DHT22;45837;51.076;3.578;2023-06-26T10:27:33;25.60;41.00
59977;DHT22;45837;51.076;3.578;2023-06-26T10:30:03;24.20;39.80
59977;DHT22;45837;51.076;3.578;2023-06-26T10:32:30;25.60;40.60
59977;DHT22;45837;51.076;3.578;2023-06-26T10:34:55;25.60;41.80
59977;DHT22;45837;51.076;3.578;2023-06-26T10:37:40;25.60;41.10
59977;DHT22;45837;51.076;3.578;2023-06-26T10:40:06;25.60;41.20
59977;DHT22;45837;51.076;3.578;2023-06-26T10:42:35;25.60;41.50
59977;DHT22;45837;51.076;3.578;2023-06-26T10:45:15;25.60;41.00
59977;DHT22;45837;51.076;3.578;2023-06-26T10:47:41;25.60;40.50
59977;DHT22;45837;51.076;3.578;2023-06-26T10:50:26;25.60;41.00
59977;DHT22;45837;51.076;3.578;2023-06-26T10:53:08;25.60;40.50
59977;DHT22;45837;51.076;3.578;2023-06-26T10:55:41;25.60;39.40
59977;DHT22;45837;51.076;3.578;2023-06-26T10:58:26;25.70;39.30
59977;DHT22;45837;51.076;3.578;2023-06-26T11:00:52;24.20;38.80
59977;DHT22;45837;51.076;3.578;2023-06-26T11:03:29;25.60;39.40
59977;DHT22;45837;51.076;3.578;2023-06-26T11:08:49;25.70;39.50
59977;DHT22;45837;51.076;3.578;2023-06-26T11:11:15;25.60;39.30
59977;DHT22;45837;51.076;3.578;2023-06-26T11:13:41;25.60;39.50
59977;DHT22;45837;51.076;3.578;2023-06-26T11:16:08;25.80;39.70
59977;DHT22;45837;51.076;3.578;2023-06-26T11:18:33;25.60;39.90
59977;DHT22;45837;51.076;3.578;2023-06-26T11:21:09;25.60;39.90
59977;DHT22;45837;51.076;3.578;2023-06-26T11:23:36;25.60;38.50
59977;DHT22;45837;51.076;3.578;2023-06-26T11:28:57;25.10;38.10
59977;DHT22;45837;51.076;3.578;2023-06-26T11:31:30;25.60;39.00
59977;DHT22;45837;51.076;3.578;2023-06-26T11:33:57;25.10;38.00
59977;DHT22;45837;51.076;3.578;2023-06-26T11:36:24;25.60;39.00
59977;DHT22;45837;51.076;3.578;2023-06-26T11:38:56;25.20;38.40
59977;DHT22;45837;51.076;3.578;2023-06-26T11:41:23;25.60;38.10
59977;DHT22;45837;51.076;3.578;2023-06-26T11:43:49;25.60;37.50
59977;DHT22;45837;51.076;3.578;2023-06-26T11:46:18;25.60;37.40
59977;DHT22;45837;51.076;3.578;2023-06-26T11:48:44;25.60;37.70
59977;DHT22;45837;51.076;3.578;2023-06-26T11:51:12;25.80;39.50
59977;DHT22;45837;51.076;3.578;2023-06-26T11:53:41;25.70;39.00
59977;DHT22;45837;51.076;3.578;2023-06-26T11:56:08;25.60;38.60
59977;DHT22;45837;51.076;3.578;2023-06-26T11:58:34;25.60;38.60
59977;DHT22;45837;51.076;3.578;2023-06-26T12:01:00;25.70;40.10
59977;DHT22;45837;51.076;3.578;2023-06-26T12:03:26;25.30;38.70
59977;DHT22;45837;51.076;3.578;2023-06-26T12:05:52;25.60;38.90
59977;DHT22;45837;51.076;3.578;2023-06-26T12:08:18;25.70;38.90
59977;DHT22;45837;51.076;3.578;2023-06-26T12:10:44;25.70;39.50
59977;DHT22;45837;51.076;3.578;2023-06-26T12:13:10;25.70;38.20
59977;DHT22;45837;51.076;3.578;2023-06-26T12:15:36;25.70;38.80
59977;DHT22;45837;51.076;3.578;2023-06-26T12:18:11;25.70;38.70
59977;DHT22;45837;51.076;3.578;2023-06-26T12:20:39;25.80;38.80
59977;DHT22;45837;51.076;3.578;2023-06-26T12:23:11;25.60;38.70
59977;DHT22;45837;51.076;3.578;2023-06-26T12:25:37;25.60;38.90
59977;DHT22;45837;51.076;3.578;2023-06-26T12:28:03;25.70;40.00
59977;DHT22;45837;51.076;3.578;2023-06-26T12:30:28;25.70;40.30
59977;DHT22;45837;51.076;3.578;2023-06-26T12:32:54;25.70;39.80
59977;DHT22;45837;51.076;3.578;2023-06-26T12:35:21;25.70;40.00
59977;DHT22;45837;51.076;3.578;2023-06-26T12:37:46;25.70;39.00
59977;DHT22;45837;51.076;3.578;2023-06-26T12:40:16;25.70;40.20
59977;DHT22;45837;51.076;3.578;2023-06-26T12:42:42;25.70;38.60
59977;DHT22;45837;51.076;3.578;2023-06-26T12:45:11;25.70;39.80
59977;DHT22;45837;51.076;3.578;2023-06-26T12:47:37;25.60;38.60
59977;DHT22;45837;51.076;3.578;2023-06-26T12:50:06;25.70;39.40
59977;DHT22;45837;51.076;3.578;2023-06-26T12:52:32;25.70;38.50
59977;DHT22;45837;51.076;3.578;2023-06-26T12:54:58;23.20;38.30
59977;DHT22;45837;51.076;3.578;2023-06-26T12:57:24;25.60;39.40
59977;DHT22;45837;51.076;3.578;2023-06-26T12:59:50;25.60;38.90
59977;DHT22;45837;51.076;3.578;2023-06-26T13:02:16;25.70;39.50
59977;DHT22;45837;51.076;3.578;2023-06-26T13:04:41;25.60;38.70
59977;DHT22;45837;51.076;3.578;2023-06-26T13:07:09;25.70;38.50
59977;DHT22;45837;51.076;3.578;2023-06-26T13:09:36;25.60;38.30
59977;DHT22;45837;51.076;3.578;2023-06-26T13:12:02;25.70;38.20
59977;DHT22;45837;51.076;3.578;2023-06-26T13:14:31;25.70;38.40
59977;DHT22;45837;51.076;3.578;2023-06-26T13:16:57;25.60;39.10
59977;DHT22;45837;51.076;3.578;2023-06-26T13:19:23;25.70;38.40
59977;DHT22;45837;51.076;3.578;2023-06-26T13:21:49;25.60;38.90
59977;DHT22;45837;51.076;3.578;2023-06-26T13:24:15;25.70;37.90
59977;DHT22;45837;51.076;3.578;2023-06-26T13:26:41;25.70;38.10
59977;DHT22;45837;51.076;3.578;2023-06-26T13:29:07;25.70;38.20
59977;DHT22;45837;51.076;3.578;2023-06-26T13:31:33;25.70;37.90
59977;DHT22;45837;51.076;3.578;2023-06-26T13:33:59;25.60;37.20
59977;DHT22;45837;51.076;3.578;2023-06-26T13:36:25;25.70;36.00
59977;DHT22;45837;51.076;3.578;2023-06-26T13:38:51;25.70;36.40
59977;DHT22;45837;51.076;3.578;2023-06-26T13:41:24;25.70;36.60
59977;DHT22;45837;51.076;3.578;2023-06-26T13:43:50;25.70;36.20
59977;DHT22;45837;51.076;3.578;2023-06-26T13:46:16;25.70;36.70
59977;DHT22;45837;51.076;3.578;2023-06-26T13:48:43;25.70;36.70
59977;DHT22;45837;51.076;3.578;2023-06-26T13:51:09;25.70;36.70
59977;DHT22;45837;51.076;3.578;2023-06-26T13:53:35;25.70;37.50
59977;DHT22;45837;51.076;3.578;2023-06-26T13:56:00;25.50;36.50
59977;DHT22;45837;51.076;3.578;2023-06-26T13:58:26;25.70;36.80
59977;DHT22;45837;51.076;3.578;2023-06-26T14:00:53;25.70;36.30
59977;DHT22;45837;51.076;3.578;2023-06-26T14:03:19;25.70;37.00
59977;DHT22;45837;51.076;3.578;2023-06-26T14:05:45;25.70;36.90
59977;DHT22;45837;51.076;3.578;2023-06-26T14:08:11;25.70;39.10
59977;DHT22;45837;51.076;3.578;2023-06-26T14:10:37;25.70;38.10
59977;DHT22;45837;51.076;3.578;2023-06-26T14:13:03;25.70;38.30
59977;DHT22;45837;51.076;3.578;2023-06-26T14:15:29;25.70;37.90
59977;DHT22;45837;51.076;3.578;2023-06-26T14:17:55;25.80;38.10
59977;DHT22;45837;51.076;3.578;2023-06-26T14:20:21;25.70;39.30
59977;DHT22;45837;51.076;3.578;2023-06-26T14:22:48;25.70;39.80
59977;DHT22;45837;51.076;3.578;2023-06-26T14:25:14;25.70;40.20
59977;DHT22;45837;51.076;3.578;2023-06-26T14:27:40;25.70;40.30
59977;DHT22;45837;51.076;3.578;2023-06-26T14:30:06;25.80;41.00
59977;DHT22;45837;51.076;3.578;2023-06-26T14:32:35;25.80;41.00
59977;DHT22;45837;51.076;3.578;2023-06-26T14:35:01;25.80;41.20
59977;DHT22;45837;51.076;3.578;2023-06-26T14:37:28;27.90;42.60
59977;DHT22;45837;51.076;3.578;2023-06-26T14:39:54;25.80;41.20
59977;DHT22;45837;51.076;3.578;2023-06-26T14:42:20;25.80;41.80
59977;DHT22;45837;51.076;3.578;2023-06-26T14:44:46;25.80;42.00
59977;DHT22;45837;51.076;3.578;2023-06-26T14:47:16;25.80;41.00
59977;DHT22;45837;51.076;3.578;2023-06-26T14:49:42;25.80;41.00
59977;DHT22;45837;51.076;3.578;2023-06-26T14:52:07;26.00;41.10
59977;DHT22;45837;51.076;3.578;2023-06-26T14:54:34;25.80;41.30
59977;DHT22;45837;51.076;3.578;2023-06-26T14:57:04;25.80;40.70
59977;DHT22;45837;51.076;3.578;2023-06-26T14:59:30;25.80;40.40
59977;DHT22;45837;51.076;3.578;2023-06-26T15:01:56;25.80;41.30
59977;DHT22;45837;51.076;3.578;2023-06-26T15:04:21;26.40;41.60
59977;DHT22;45837;51.076;3.578;2023-06-26T15:06:47;26.50;41.80
59977;DHT22;45837;51.076;3.578;2023-06-26T15:09:13;24.40;41.00
59977;DHT22;45837;51.076;3.578;2023-06-26T15:11:39;25.80;40.80
59977;DHT22;45837;51.076;3.578;2023-06-26T15:14:04;25.80;41.70
59977;DHT22;45837;51.076;3.578;2023-06-26T15:16:30;25.80;41.40
59977;DHT22;45837;51.076;3.578;2023-06-26T15:18:56;25.40;41.00
59977;DHT22;45837;51.076;3.578;2023-06-26T15:21:22;25.80;41.90
59977;DHT22;45837;51.076;3.578;2023-06-26T15:23:50;25.80;41.70
59977;DHT22;45837;51.076;3.578;2023-06-26T15:26:16;25.70;40.70
59977;DHT22;45837;51.076;3.578;2023-06-26T15:28:42;25.80;40.80
59977;DHT22;45837;51.076;3.578;2023-06-26T15:31:07;25.00;41.40
59977;DHT22;45837;51.076;3.578;2023-06-26T15:33:33;25.80;41.50
59977;DHT22;45837;51.076;3.578;2023-06-26T15:35:59;25.80;42.10
59977;DHT22;45837;51.076;3.578;2023-06-26T15:38:25;25.80;41.70